Time;durP1;ratioP1;P1;durP2;ratioP2;P2;SDS_P1;SDS_P2;PMS_P1;PMS_P2;Temp;Humidity;BMP_temperature;BMP_pressure;BME280_temperature;BME280_humidity;BME280_pressure;Samples;Min_cycle;Max_cycle;Signal;HPM_P1;HPM_P2
2024/01/16 00:02:05;;;;;;;8.30;7.50;;;1.40;99.90;;;;;;5022243;28;20439;-65
2024/01/16 00:04:33;;;;;;;8.55;7.30;;;1.40;99.90;;;;;;5031085;28;20439;-65
2024/01/16 00:07:00;;;;;;;9.13;7.35;;;1.40;99.90;;;;;;5030713;28;20542;-66
2024/01/16 00:09:26;;;;;;;8.05;7.25;;;1.50;99.90;;;;;;5029306;28;20435;-66
2024/01/16 00:11:53;;;;;;;10.07;7.57;;;1.50;99.90;;;;;;5032258;28;20426;-66
2024/01/16 00:14:20;;;;;;;8.50;7.60;;;1.40;99.90;;;;;;5028373;28;20445;-66
2024/01/16 00:16:47;;;;;;;11.20;8.80;;;1.40;99.90;;;;;;5026230;28;20449;-66
2024/01/16 00:19:14;;;;;;;10.18;7.47;;;1.40;99.90;;;;;;5028728;28;20415;-66
2024/01/16 00:21:45;;;;;;;9.27;8.37;;;1.40;99.90;;;;;;5029064;28;20941;-65
2024/01/16 00:24:12;;;;;;;9.13;8.13;;;1.40;99.90;;;;;;5027098;28;20438;-66
2024/01/16 00:26:38;;;;;;;9.95;7.80;;;1.30;99.90;;;;;;5028716;28;20424;-66
2024/01/16 00:29:05;;;;;;;9.43;8.07;;;1.30;99.90;;;;;;5027519;28;20522;-65
2024/01/16 00:31:32;;;;;;;8.70;7.80;;;1.30;99.90;;;;;;5026761;28;20518;-65
2024/01/16 00:33:59;;;;;;;11.88;9.02;;;1.20;99.90;;;;;;5029074;28;20419;-65
2024/01/16 00:36:25;;;;;;;13.35;9.10;;;1.20;99.90;;;;;;5026518;28;20438;-66
2024/01/16 00:38:54;;;;;;;11.65;8.38;;;1.20;99.90;;;;;;5021728;28;20442;-65
2024/01/16 00:41:20;;;;;;;9.38;8.38;;;1.20;99.90;;;;;;5022622;28;20451;-66
2024/01/16 00:43:47;;;;;;;11.45;8.43;;;1.30;99.90;;;;;;5025822;28;20444;-65
2024/01/16 00:46:13;;;;;;;9.53;8.23;;;1.30;99.90;;;;;;5025038;28;20633;-65
2024/01/16 00:48:40;;;;;;;11.43;9.00;;;1.30;99.90;;;;;;5026125;28;20512;-66
2024/01/16 00:51:07;;;;;;;9.83;9.03;;;1.30;99.90;;;;;;5029588;28;20414;-66
2024/01/16 00:53:33;;;;;;;9.57;8.60;;;1.30;99.90;;;;;;5027163;28;20518;-66
2024/01/16 00:56:01;;;;;;;9.95;8.63;;;1.30;99.90;;;;;;5031629;28;20427;-66
2024/01/16 00:58:28;;;;;;;13.18;8.90;;;1.30;99.90;;;;;;5022867;28;20435;-66
2024/01/16 01:00:55;;;;;;;9.43;8.20;;;1.30;99.90;;;;;;5023498;28;20477;-66
2024/01/16 01:03:22;;;;;;;9.95;8.95;;;1.30;99.90;;;;;;5025092;28;20514;-65
2024/01/16 01:05:48;;;;;;;10.35;8.60;;;1.20;99.90;;;;;;5025098;28;20433;-65
2024/01/16 01:08:15;;;;;;;9.88;8.90;;;1.20;99.90;;;;;;5021896;28;20434;-65
2024/01/16 01:10:42;;;;;;;12.05;8.82;;;1.20;99.90;;;;;;5024885;28;20454;-65
2024/01/16 01:13:10;;;;;;;11.50;8.50;;;1.20;99.90;;;;;;5029629;28;20431;-65
2024/01/16 01:15:36;;;;;;;11.25;8.80;;;1.20;99.90;;;;;;5026207;28;20833;-65
2024/01/16 01:18:03;;;;;;;10.53;8.63;;;1.20;99.90;;;;;;5025496;28;20453;-66
2024/01/16 01:20:30;;;;;;;10.48;8.35;;;1.20;99.90;;;;;;5019674;28;20461;-65
2024/01/16 01:22:58;;;;;;;10.77;8.27;;;1.20;99.90;;;;;;5016545;28;20743;-65
2024/01/16 01:25:26;;;;;;;10.25;7.85;;;1.20;99.90;;;;;;5024865;28;20422;-66
2024/01/16 01:27:52;;;;;;;9.27;7.43;;;1.20;99.90;;;;;;5018093;28;20440;-66
2024/01/16 01:30:20;;;;;;;10.50;7.80;;;1.20;99.90;;;;;;5022257;28;20790;-66
2024/01/16 01:32:47;;;;;;;9.38;7.57;;;1.20;99.90;;;;;;5024802;28;20412;-65
2024/01/16 01:35:14;;;;;;;11.45;7.97;;;1.10;99.90;;;;;;5025538;28;20957;-66
2024/01/16 01:37:41;;;;;;;9.60;6.72;;;1.10;99.90;;;;;;5031672;28;20705;-65
2024/01/16 01:40:09;;;;;;;7.50;6.80;;;1.10;99.90;;;;;;5043819;28;20891;-65
2024/01/16 01:42:35;;;;;;;8.48;7.15;;;1.10;99.90;;;;;;5042705;28;20441;-66
2024/01/16 01:45:03;;;;;;;9.18;7.82;;;1.10;99.90;;;;;;5041756;28;20435;-66
2024/01/16 01:47:32;;;;;;;8.85;6.35;;;1.10;99.90;;;;;;5042308;28;20479;-66
2024/01/16 01:49:59;;;;;;;7.38;5.93;;;1.10;99.90;;;;;;5032285;28;20771;-65
2024/01/16 01:52:26;;;;;;;8.40;6.10;;;1.10;99.90;;;;;;5031285;28;20485;-65
2024/01/16 01:54:53;;;;;;;7.90;6.18;;;1.10;99.90;;;;;;5023933;28;20453;-65
2024/01/16 01:57:20;;;;;;;6.80;6.10;;;1.20;99.90;;;;;;5023101;28;20510;-66
2024/01/16 01:59:47;;;;;;;9.90;6.63;;;1.20;99.90;;;;;;5021411;28;20431;-65
2024/01/16 02:02:14;;;;;;;9.40;6.95;;;1.10;99.90;;;;;;5026294;28;20494;-65
2024/01/16 02:04:46;;;;;;;8.40;6.95;;;1.10;99.90;;;;;;5024971;28;20771;-65
2024/01/16 02:07:14;;;;;;;8.32;7.60;;;1.10;99.90;;;;;;5021414;28;20433;-65
2024/01/16 02:09:41;;;;;;;10.93;7.97;;;1.10;99.90;;;;;;5025398;28;20576;-65
2024/01/16 02:12:08;;;;;;;10.02;8.20;;;1.10;99.90;;;;;;5022772;28;20796;-65
2024/01/16 02:14:35;;;;;;;9.00;8.10;;;1.10;99.90;;;;;;5025988;28;20441;-65
2024/01/16 02:17:02;;;;;;;9.88;8.90;;;1.00;99.90;;;;;;5023769;28;20453;-65
2024/01/16 02:19:28;;;;;;;10.20;9.00;;;1.00;99.90;;;;;;5021580;28;20754;-65
2024/01/16 02:22:01;;;;;;;13.30;9.57;;;1.00;99.90;;;;;;5034534;28;20438;-65
2024/01/16 02:24:29;;;;;;;10.50;9.40;;;0.90;99.90;;;;;;5028782;28;20438;-65
2024/01/16 02:26:56;;;;;;;12.07;10.02;;;0.90;99.90;;;;;;5025097;28;20972;-65
2024/01/16 02:29:22;;;;;;;13.73;9.73;;;0.90;99.90;;;;;;5028109;28;20442;-65
2024/01/16 02:31:49;;;;;;;11.80;8.73;;;0.90;99.90;;;;;;5024222;28;20446;-65
2024/01/16 02:34:16;;;;;;;11.32;9.30;;;1.00;99.90;;;;;;5027228;28;20466;-65
2024/01/16 02:36:43;;;;;;;10.38;8.32;;;0.90;99.90;;;;;;5022577;28;20895;-66
2024/01/16 02:39:10;;;;;;;9.40;8.40;;;1.00;99.90;;;;;;5018295;28;20505;-65
2024/01/16 02:41:38;;;;;;;10.13;8.70;;;0.90;99.90;;;;;;5018539;28;20439;-65
2024/01/16 02:44:05;;;;;;;9.10;8.20;;;1.00;99.90;;;;;;5022566;28;20449;-65
2024/01/16 02:46:32;;;;;;;11.60;8.30;;;0.90;99.90;;;;;;5021972;28;20406;-65
2024/01/16 02:48:59;;;;;;;10.27;7.47;;;1.00;99.90;;;;;;5020800;28;20498;-65
2024/01/16 02:51:25;;;;;;;8.57;6.90;;;1.00;99.90;;;;;;5026385;28;20448;-65
2024/01/16 02:53:52;;;;;;;8.60;7.45;;;1.00;99.90;;;;;;5023961;28;20415;-65
2024/01/16 02:56:19;;;;;;;8.68;7.10;;;1.00;99.90;;;;;;5020119;28;20442;-65
2024/01/16 02:58:47;;;;;;;10.77;7.70;;;1.00;99.90;;;;;;5018583;28;20882;-65
2024/01/16 03:01:15;;;;;;;10.25;7.20;;;1.00;99.90;;;;;;5024597;28;20452;-65
2024/01/16 03:03:42;;;;;;;9.70;7.47;;;1.00;99.90;;;;;;5021638;28;20495;-65
2024/01/16 03:06:08;;;;;;;12.25;7.65;;;1.00;99.90;;;;;;5024699;28;20427;-65
2024/01/16 03:08:35;;;;;;;11.00;8.02;;;1.00;99.90;;;;;;5019571;28;20862;-65
2024/01/16 03:11:02;;;;;;;10.25;7.35;;;1.00;99.90;;;;;;5022630;28;20434;-65
2024/01/16 03:13:29;;;;;;;10.07;7.07;;;1.00;99.90;;;;;;5022374;28;20501;-65
2024/01/16 03:15:57;;;;;;;8.27;7.38;;;0.90;99.90;;;;;;5018112;28;20441;-65
2024/01/16 03:18:24;;;;;;;8.85;7.07;;;0.90;99.90;;;;;;5021209;28;20442;-65
2024/01/16 03:20:50;;;;;;;9.70;7.82;;;0.90;99.90;;;;;;5014120;28;20480;-65
2024/01/16 03:23:17;;;;;;;8.65;7.75;;;0.90;99.90;;;;;;5020864;28;20812;-65
2024/01/16 03:25:44;;;;;;;9.85;8.02;;;0.90;99.90;;;;;;5020555;28;20435;-70
2024/01/16 03:28:11;;;;;;;9.70;8.00;;;0.90;99.90;;;;;;5024927;28;20438;-65
2024/01/16 03:30:37;;;;;;;9.50;8.05;;;0.90;99.90;;;;;;5021310;28;20438;-65
2024/01/16 03:33:06;;;;;;;11.15;8.20;;;0.90;99.90;;;;;;5019741;28;20530;-65
2024/01/16 03:35:33;;;;;;;10.63;7.70;;;0.90;99.90;;;;;;5022745;28;20446;-65
2024/01/16 03:37:59;;;;;;;8.75;7.30;;;0.90;99.90;;;;;;5021851;28;20438;-65
2024/01/16 03:40:26;;;;;;;11.43;7.35;;;0.90;99.90;;;;;;5022408;28;20529;-65
2024/01/16 03:42:53;;;;;;;10.38;8.15;;;0.90;99.90;;;;;;5025611;28;20452;-65
2024/01/16 03:45:19;;;;;;;9.02;8.05;;;0.90;99.90;;;;;;5022456;28;20866;-65
2024/01/16 03:47:46;;;;;;;12.05;8.80;;;0.90;99.90;;;;;;5023114;28;20430;-65
2024/01/16 03:50:14;;;;;;;10.95;8.70;;;0.90;99.90;;;;;;5021226;28;20431;-65
2024/01/16 03:52:41;;;;;;;13.30;8.70;;;0.90;99.90;;;;;;5025688;28;20435;-65
2024/01/16 03:55:09;;;;;;;11.75;8.85;;;0.90;99.90;;;;;;5025767;28;20430;-65
2024/01/16 03:57:36;;;;;;;12.02;9.52;;;0.90;99.90;;;;;;5028207;28;20450;-65
2024/01/16 04:00:04;;;;;;;11.65;9.30;;;0.90;99.90;;;;;;5024459;28;20428;-65
2024/01/16 04:02:31;;;;;;;10.00;9.00;;;0.90;99.90;;;;;;5028618;28;20504;-65
2024/01/16 04:04:58;;;;;;;10.93;9.52;;;0.90;99.90;;;;;;5026184;28;20470;-65
2024/01/16 04:07:27;;;;;;;10.63;9.07;;;0.90;99.90;;;;;;5030792;28;20431;-65
2024/01/16 04:09:53;;;;;;;11.82;9.27;;;0.90;99.90;;;;;;5023833;28;20535;-65
2024/01/16 04:12:20;;;;;;;12.43;9.50;;;0.90;99.90;;;;;;5029073;28;20497;-65
2024/01/16 04:14:47;;;;;;;12.70;9.60;;;0.90;99.90;;;;;;5023958;28;20431;-65
2024/01/16 04:17:13;;;;;;;12.40;10.35;;;0.90;99.90;;;;;;5026811;28;20797;-65
2024/01/16 04:19:40;;;;;;;11.60;10.50;;;0.90;99.90;;;;;;5022156;28;20549;-65
2024/01/16 04:22:07;;;;;;;11.90;10.60;;;0.80;99.90;;;;;;5027931;28;20888;-65
2024/01/16 04:24:35;;;;;;;12.20;10.02;;;0.80;99.90;;;;;;5025766;28;20411;-65
2024/01/16 04:27:02;;;;;;;11.60;10.40;;;0.80;99.90;;;;;;5027498;28;20773;-65
2024/01/16 04:29:29;;;;;;;12.10;10.38;;;0.80;99.90;;;;;;5027402;28;20415;-65
2024/01/16 04:31:56;;;;;;;11.65;10.55;;;0.80;99.90;;;;;;5023692;28;20437;-65
2024/01/16 04:34:23;;;;;;;11.52;9.80;;;0.80;99.90;;;;;;5029125;28;20461;-65
2024/01/16 04:36:49;;;;;;;12.33;9.73;;;0.80;99.90;;;;;;5026267;28;20434;-65
2024/01/16 04:39:16;;;;;;;12.20;10.35;;;0.80;99.90;;;;;;5025847;28;20790;-65
2024/01/16 04:41:44;;;;;;;11.75;9.50;;;0.80;99.90;;;;;;5027737;28;21019;-65
2024/01/16 04:44:11;;;;;;;11.00;9.57;;;0.80;99.90;;;;;;5025691;28;20438;-65
2024/01/16 04:46:38;;;;;;;11.80;8.53;;;0.80;99.90;;;;;;5023304;28;20553;-68
2024/01/16 04:49:05;;;;;;;9.82;8.40;;;0.80;99.90;;;;;;5027154;28;20407;-66
2024/01/16 04:51:31;;;;;;;9.65;8.38;;;0.80;99.90;;;;;;5033942;28;20433;-65
2024/01/16 04:53:58;;;;;;;8.53;7.53;;;0.80;99.90;;;;;;5030255;28;20487;-65
2024/01/16 04:56:25;;;;;;;10.07;7.60;;;0.80;99.90;;;;;;5026719;28;20431;-65
2024/01/16 04:58:53;;;;;;;8.25;6.70;;;0.80;99.90;;;;;;5023676;28;20426;-65
2024/01/16 05:01:19;;;;;;;9.10;7.20;;;0.80;99.90;;;;;;5033329;28;20483;-65
2024/01/16 05:03:46;;;;;;;9.50;6.57;;;0.80;99.90;;;;;;5030197;28;20421;-65
2024/01/16 05:06:14;;;;;;;9.23;6.22;;;0.80;99.90;;;;;;5024197;28;20497;-65
2024/01/16 05:08:41;;;;;;;11.55;6.80;;;0.80;99.90;;;;;;5025770;28;20983;-65
2024/01/16 05:11:08;;;;;;;8.80;6.17;;;0.80;99.90;;;;;;5022407;28;21055;-66
2024/01/16 05:13:35;;;;;;;9.50;6.22;;;0.80;99.90;;;;;;5028265;28;20450;-66
2024/01/16 05:16:03;;;;;;;7.90;6.10;;;0.80;99.90;;;;;;5021186;28;20442;-65
2024/01/16 05:18:32;;;;;;;9.75;7.20;;;0.80;99.90;;;;;;5021627;28;20517;-65
2024/01/16 05:20:59;;;;;;;9.50;5.82;;;0.90;99.90;;;;;;5023562;28;20530;-66
2024/01/16 05:23:26;;;;;;;8.45;6.60;;;0.90;99.90;;;;;;5025696;28;20434;-65
2024/01/16 05:25:52;;;;;;;11.05;6.72;;;0.90;99.90;;;;;;5022537;28;20756;-65
2024/01/16 05:28:19;;;;;;;8.73;7.40;;;0.90;99.90;;;;;;5024384;28;20442;-66
2024/01/16 05:30:46;;;;;;;12.00;8.30;;;0.90;99.90;;;;;;5025210;28;21026;-65
2024/01/16 05:33:14;;;;;;;8.80;7.55;;;0.90;99.90;;;;;;5023328;28;20441;-65
2024/01/16 05:35:41;;;;;;;9.60;7.35;;;0.90;99.90;;;;;;5024800;28;20878;-65
2024/01/16 05:38:07;;;;;;;11.82;8.40;;;0.90;99.90;;;;;;5026791;28;20438;-65
2024/01/16 05:40:34;;;;;;;11.82;7.72;;;0.90;99.90;;;;;;5025775;28;20427;-64
2024/01/16 05:43:01;;;;;;;9.98;8.00;;;0.90;99.90;;;;;;5023707;28;20439;-64
2024/01/16 05:45:28;;;;;;;11.65;8.13;;;0.90;99.90;;;;;;5026338;28;20509;-65
2024/01/16 05:47:55;;;;;;;9.57;7.70;;;0.90;99.90;;;;;;5022072;28;20436;-65
2024/01/16 05:50:23;;;;;;;11.18;7.30;;;0.90;99.90;;;;;;5018123;28;20524;-64
2024/01/16 05:52:50;;;;;;;10.50;7.20;;;0.90;99.90;;;;;;5023483;28;20860;-66
2024/01/16 05:55:16;;;;;;;12.70;7.80;;;0.90;99.90;;;;;;5024675;28;20427;-63
2024/01/16 05:57:43;;;;;;;10.38;7.20;;;0.90;99.90;;;;;;5029097;28;20441;-65
2024/01/16 06:00:11;;;;;;;10.65;8.40;;;0.90;99.90;;;;;;5027869;28;20445;-64
2024/01/16 06:02:38;;;;;;;12.00;7.53;;;0.90;99.90;;;;;;5022905;28;20419;-64
2024/01/16 06:05:05;;;;;;;10.48;6.88;;;0.90;99.90;;;;;;5024388;28;20434;-64
2024/01/16 06:07:33;;;;;;;9.02;6.70;;;0.90;99.90;;;;;;5031625;28;20462;-69
2024/01/16 06:10:00;;;;;;;8.32;6.82;;;0.90;99.90;;;;;;5041809;28;20430;-65
2024/01/16 06:12:27;;;;;;;13.15;7.30;;;0.90;99.90;;;;;;5039486;28;20434;-64
2024/01/16 06:14:54;;;;;;;8.32;6.60;;;0.90;99.90;;;;;;5028679;28;20431;-64
2024/01/16 06:17:20;;;;;;;9.15;6.55;;;0.80;99.90;;;;;;5030761;28;20747;-64
2024/01/16 06:19:47;;;;;;;8.40;6.07;;;0.80;99.90;;;;;;5023634;28;20955;-64
2024/01/16 06:22:14;;;;;;;9.55;7.40;;;0.70;99.90;;;;;;5026204;28;20759;-63
2024/01/16 06:24:42;;;;;;;8.52;5.72;;;0.70;99.90;;;;;;5026343;28;20435;-64
2024/01/16 06:27:09;;;;;;;10.43;6.40;;;0.70;99.90;;;;;;5026654;28;20560;-64
2024/01/16 06:29:35;;;;;;;9.60;6.40;;;0.70;99.90;;;;;;5029256;28;20439;-64
2024/01/16 06:32:02;;;;;;;10.52;6.40;;;0.70;99.90;;;;;;5024905;28;20522;-64
2024/01/16 06:34:29;;;;;;;9.23;6.28;;;0.70;99.90;;;;;;5022009;28;20449;-64
2024/01/16 06:36:56;;;;;;;9.17;5.60;;;0.70;99.90;;;;;;5026433;28;20415;-64
2024/01/16 06:39:23;;;;;;;9.13;5.88;;;0.80;99.90;;;;;;5022642;28;20914;-64
2024/01/16 06:41:51;;;;;;;6.63;5.22;;;0.80;99.90;;;;;;5029182;28;20423;-64
2024/01/16 06:44:17;;;;;;;8.55;5.20;;;0.90;99.90;;;;;;5032303;28;20435;-64
2024/01/16 06:46:44;;;;;;;10.68;5.50;;;0.90;99.90;;;;;;5038837;28;20423;-63
2024/01/16 06:49:11;;;;;;;8.27;5.00;;;0.90;99.90;;;;;;5042350;28;20487;-63
2024/01/16 06:51:38;;;;;;;9.40;5.80;;;0.90;99.90;;;;;;5043563;28;20481;-63
2024/01/16 06:54:05;;;;;;;8.40;5.18;;;0.90;99.90;;;;;;5039588;28;20698;-63
2024/01/16 06:56:32;;;;;;;7.25;4.38;;;0.90;99.90;;;;;;5041359;28;20431;-63
2024/01/16 06:59:00;;;;;;;6.95;4.38;;;0.90;99.90;;;;;;5042814;28;20474;-63
2024/01/16 07:01:27;;;;;;;6.28;5.20;;;0.90;99.90;;;;;;5035210;28;20436;-64
2024/01/16 07:03:54;;;;;;;6.80;4.72;;;0.90;99.90;;;;;;5026881;28;20421;-63
2024/01/16 07:06:21;;;;;;;8.30;4.50;;;0.90;99.90;;;;;;5022303;28;20411;-63
2024/01/16 07:08:47;;;;;;;9.30;4.70;;;1.00;99.90;;;;;;5022993;28;20488;-64
2024/01/16 07:11:14;;;;;;;7.50;4.50;;;1.00;99.90;;;;;;5022709;28;20561;-64
2024/01/16 07:13:41;;;;;;;6.25;3.95;;;1.00;99.90;;;;;;5024981;28;20428;-66
2024/01/16 07:16:11;;;;;;;7.35;4.50;;;1.00;99.90;;;;;;5024223;28;20459;-64
2024/01/16 07:18:38;;;;;;;9.47;4.00;;;1.00;99.90;;;;;;5022434;28;20848;-67
2024/01/16 07:21:05;;;;;;;6.35;4.32;;;1.00;99.90;;;;;;5045737;23;21464;-72
2024/01/16 07:23:32;;;;;;;5.90;3.90;;;1.00;99.90;;;;;;5041961;28;20437;-72
2024/01/16 07:25:59;;;;;;;5.97;3.63;;;1.00;99.90;;;;;;5039236;28;20436;-72
2024/01/16 07:28:25;;;;;;;7.53;3.80;;;1.00;99.90;;;;;;5042736;28;20974;-73
2024/01/16 07:30:54;;;;;;;6.50;4.05;;;1.00;99.90;;;;;;5046863;28;20444;-73
2024/01/16 07:33:22;;;;;;;7.18;3.85;;;1.00;99.90;;;;;;5043504;28;20417;-73
2024/01/16 07:35:49;;;;;;;6.00;3.90;;;1.00;99.90;;;;;;5043470;28;20452;-71
2024/01/16 07:38:16;;;;;;;7.43;4.35;;;1.00;99.90;;;;;;5048698;28;20803;-72
2024/01/16 07:40:42;;;;;;;12.50;5.20;;;1.00;99.90;;;;;;5045927;28;20424;-71
2024/01/16 07:43:09;;;;;;;8.98;4.20;;;1.10;99.90;;;;;;5046102;28;21339;-71
2024/01/16 07:45:36;;;;;;;10.13;6.00;;;1.10;99.90;;;;;;5047447;28;20413;-65
2024/01/16 07:48:03;;;;;;;7.53;4.60;;;1.20;99.90;;;;;;5043843;28;20837;-70
2024/01/16 07:50:31;;;;;;;9.05;4.00;;;1.40;99.90;;;;;;5047101;28;20984;-70
2024/01/16 07:52:58;;;;;;;9.55;4.38;;;1.40;99.90;;;;;;5042528;28;20791;-70
2024/01/16 07:55:24;;;;;;;6.55;3.35;;;1.30;99.90;;;;;;5040771;28;20432;-71
2024/01/16 07:57:51;;;;;;;7.90;3.70;;;1.20;99.90;;;;;;5040247;28;20440;-71
2024/01/16 08:00:18;;;;;;;9.55;3.80;;;1.20;99.90;;;;;;5045024;28;20872;-71
2024/01/16 08:02:45;;;;;;;7.20;3.35;;;1.20;99.90;;;;;;5044411;28;20443;-71
2024/01/16 08:05:12;;;;;;;5.57;3.00;;;1.10;99.90;;;;;;5043509;28;20409;-71
2024/01/16 08:07:43;;;;;;;4.75;3.00;;;1.10;99.90;;;;;;5042932;28;20419;-71
2024/01/16 08:10:10;;;;;;;6.05;2.95;;;1.10;99.90;;;;;;5041067;28;20417;-71
2024/01/16 08:12:38;;;;;;;7.10;3.90;;;1.10;99.90;;;;;;5048507;28;20512;-71
2024/01/16 08:15:07;;;;;;;5.70;2.80;;;1.10;99.90;;;;;;5047120;28;20422;-71
2024/01/16 08:17:34;;;;;;;6.07;2.80;;;1.00;99.90;;;;;;5048233;28;20939;-71
2024/01/16 08:20:00;;;;;;;5.40;2.80;;;1.00;99.90;;;;;;5036770;28;20429;-71
2024/01/16 08:22:27;;;;;;;4.90;2.60;;;1.00;99.90;;;;;;5043661;28;20432;-70
2024/01/16 08:24:55;;;;;;;4.70;2.78;;;1.00;99.90;;;;;;5048743;28;20920;-70
2024/01/16 08:27:22;;;;;;;4.30;2.50;;;1.10;99.90;;;;;;5041629;28;20425;-70
2024/01/16 08:29:49;;;;;;;4.68;2.92;;;1.10;99.90;;;;;;5044987;28;20429;-71
2024/01/16 08:32:16;;;;;;;6.22;2.90;;;1.10;99.90;;;;;;5038810;28;20526;-71
2024/01/16 08:34:43;;;;;;;4.60;2.50;;;1.20;99.90;;;;;;5034934;28;20417;-71
2024/01/16 08:37:10;;;;;;;5.22;2.60;;;1.20;99.90;;;;;;5046511;28;20966;-71
2024/01/16 08:39:37;;;;;;;4.45;2.63;;;1.20;99.90;;;;;;5046175;28;20429;-71
2024/01/16 08:42:05;;;;;;;5.03;2.85;;;1.20;99.90;;;;;;5046016;28;20440;-71
2024/01/16 08:44:32;;;;;;;4.65;3.45;;;1.30;99.90;;;;;;5044896;28;20511;-71
2024/01/16 08:47:00;;;;;;;5.68;2.70;;;1.30;99.90;;;;;;5035962;28;20429;-71
2024/01/16 08:49:27;;;;;;;8.60;3.80;;;1.30;99.90;;;;;;5040560;28;20885;-71
2024/01/16 08:51:54;;;;;;;4.20;2.83;;;1.30;99.90;;;;;;5037740;28;20429;-71
2024/01/16 08:54:22;;;;;;;5.53;2.97;;;1.20;99.90;;;;;;5040303;28;20430;-71
2024/01/16 08:56:49;;;;;;;7.73;3.70;;;1.20;99.90;;;;;;5044397;28;20461;-71
2024/01/16 08:59:17;;;;;;;8.73;3.45;;;1.10;99.90;;;;;;5042094;28;20445;-71
2024/01/16 09:01:44;;;;;;;5.97;2.80;;;1.10;99.90;;;;;;5038277;28;20947;-71
2024/01/16 09:04:11;;;;;;;5.63;3.03;;;1.10;99.90;;;;;;5039534;28;20796;-71
2024/01/16 09:06:38;;;;;;;5.80;3.20;;;1.10;99.90;;;;;;5038286;28;20437;-71
2024/01/16 09:09:05;;;;;;;6.18;2.90;;;1.20;99.90;;;;;;5043942;28;20427;-71
2024/01/16 09:11:32;;;;;;;6.00;3.30;;;1.30;99.90;;;;;;5039904;28;20795;-71
2024/01/16 09:13:59;;;;;;;5.80;3.10;;;1.40;99.90;;;;;;5039815;28;21650;-72
2024/01/16 09:16:27;;;;;;;6.20;4.30;;;1.40;99.90;;;;;;5034831;28;20778;-71
2024/01/16 09:18:54;;;;;;;5.10;3.10;;;1.40;99.90;;;;;;5046413;28;20955;-72
2024/01/16 09:21:21;;;;;;;4.80;3.05;;;1.40;99.90;;;;;;5044989;28;20494;-71
2024/01/16 09:23:48;;;;;;;4.22;3.10;;;1.40;99.90;;;;;;5043775;28;20436;-71
2024/01/16 09:26:14;;;;;;;4.40;2.72;;;1.50;99.90;;;;;;5035785;28;20446;-72
2024/01/16 09:28:41;;;;;;;5.88;3.40;;;1.50;99.90;;;;;;5041531;28;21109;-71
2024/01/16 09:31:08;;;;;;;5.60;3.00;;;1.50;99.90;;;;;;5037804;28;20430;-76
2024/01/16 09:33:36;;;;;;;4.63;2.90;;;1.50;99.90;;;;;;5045479;28;20421;-75
2024/01/16 09:36:03;;;;;;;5.40;2.60;;;1.50;99.90;;;;;;5041584;28;20720;-75
2024/01/16 09:38:31;;;;;;;6.80;3.00;;;1.50;99.90;;;;;;5045812;28;20444;-75
2024/01/16 09:40:59;;;;;;;5.60;2.90;;;1.50;99.90;;;;;;5040142;28;20664;-75
2024/01/16 09:43:27;;;;;;;4.40;2.70;;;1.50;99.90;;;;;;5040228;28;20777;-74
2024/01/16 09:45:56;;;;;;;6.85;2.97;;;1.50;99.90;;;;;;5043250;28;20436;-75
2024/01/16 09:48:23;;;;;;;5.78;3.13;;;1.50;99.90;;;;;;5033622;28;20409;-75
2024/01/16 09:50:51;;;;;;;7.20;3.40;;;1.50;99.90;;;;;;5041435;28;20429;-75
2024/01/16 09:53:18;;;;;;;7.53;3.25;;;1.50;99.90;;;;;;5043538;28;20440;-76
2024/01/16 09:55:45;;;;;;;6.78;3.20;;;1.50;99.90;;;;;;5044095;28;20433;-76
2024/01/16 09:58:14;;;;;;;6.50;3.08;;;1.60;99.90;;;;;;5041006;28;20425;-77
2024/01/16 10:00:43;;;;;;;5.60;3.30;;;1.60;99.90;;;;;;5044528;28;20433;-76
2024/01/16 10:03:12;;;;;;;4.90;3.30;;;1.60;99.90;;;;;;5043734;28;20523;-75
2024/01/16 10:05:40;;;;;;;5.03;2.88;;;1.60;99.90;;;;;;5044535;28;20417;-73
2024/01/16 10:08:08;;;;;;;6.85;3.30;;;1.60;99.90;;;;;;5041215;28;20425;-75
2024/01/16 10:10:35;;;;;;;4.80;2.97;;;1.70;99.90;;;;;;5046097;28;20795;-75
2024/01/16 10:13:02;;;;;;;9.97;3.57;;;1.70;99.90;;;;;;5037596;28;20571;-75
2024/01/16 10:15:29;;;;;;;6.90;3.22;;;1.70;99.90;;;;;;5041559;28;20433;-74
2024/01/16 10:17:56;;;;;;;5.88;3.70;;;1.70;99.90;;;;;;5033649;28;20422;-75
2024/01/16 10:20:34;;;;;;;6.70;3.00;;;1.80;99.90;;;;;;5044440;28;20429;-71
2024/01/16 10:23:00;;;;;;;8.05;4.00;;;1.80;99.90;;;;;;5044165;28;20442;-74
2024/01/16 10:25:28;;;;;;;8.90;3.47;;;1.90;99.90;;;;;;5046369;28;20429;-75
2024/01/16 10:28:04;;;;;;;6.97;2.80;;;2.20;99.90;;;;;;5043277;28;20448;-72
2024/01/16 10:30:32;;;;;;;7.25;3.03;;;2.30;99.90;;;;;;5039138;28;20872;-72
2024/01/16 10:33:14;;;;;;;5.70;2.70;;;2.40;99.90;;;;;;5038184;28;20444;-71
2024/01/16 10:35:41;;;;;;;5.13;2.60;;;2.40;99.90;;;;;;5043339;28;20986;-71
2024/01/16 10:38:07;;;;;;;5.85;2.60;;;2.50;99.90;;;;;;5038802;28;20798;-70
2024/01/16 10:40:35;;;;;;;5.75;2.70;;;2.60;99.90;;;;;;5034911;28;20429;-70
2024/01/16 10:43:04;;;;;;;4.78;2.70;;;2.60;99.90;;;;;;5039312;28;20451;-73
2024/01/16 10:45:31;;;;;;;5.80;3.25;;;2.60;99.90;;;;;;5043053;28;20943;-72
2024/01/16 10:48:06;;;;;;;7.80;3.83;;;2.50;99.90;;;;;;5043305;28;20448;-71
2024/01/16 10:50:33;;;;;;;5.65;2.85;;;2.40;99.90;;;;;;5037144;28;20429;-72
2024/01/16 10:53:03;;;;;;;4.55;2.60;;;2.30;99.90;;;;;;5036225;28;20444;-72
2024/01/16 10:55:30;;;;;;;4.60;2.60;;;2.20;99.90;;;;;;5042663;28;20867;-72
2024/01/16 10:58:00;;;;;;;7.70;3.15;;;2.10;99.90;;;;;;5043629;28;20437;-73
2024/01/16 11:00:28;;;;;;;5.95;2.72;;;2.10;99.90;;;;;;5037918;28;20800;-73
2024/01/16 11:03:01;;;;;;;6.85;3.25;;;2.10;99.90;;;;;;5048436;28;20417;-73
2024/01/16 11:05:31;;;;;;;5.15;2.50;;;2.20;99.90;;;;;;5046690;28;20781;-73
2024/01/16 11:08:01;;;;;;;7.15;3.03;;;2.30;99.90;;;;;;5046182;28;20436;-72
2024/01/16 11:10:28;;;;;;;6.80;2.60;;;2.40;99.90;;;;;;5044499;28;20421;-72
2024/01/16 11:12:56;;;;;;;6.18;3.20;;;2.50;99.90;;;;;;5046031;28;20444;-72
2024/01/16 11:15:25;;;;;;;5.20;2.90;;;2.30;99.90;;;;;;5047385;28;20439;-72
2024/01/16 11:17:52;;;;;;;6.15;2.60;;;2.20;99.90;;;;;;5051016;28;20924;-72
2024/01/16 11:20:19;;;;;;;4.53;2.30;;;2.30;99.90;;;;;;5051484;28;20429;-72
2024/01/16 11:22:48;;;;;;;6.88;3.08;;;2.20;99.90;;;;;;5041636;28;20442;-73
2024/01/16 11:25:18;;;;;;;8.00;3.15;;;2.20;99.90;;;;;;5042149;28;20428;-73
2024/01/16 11:27:50;;;;;;;6.10;2.45;;;2.20;99.90;;;;;;5051136;28;20432;-73
2024/01/16 11:30:32;;;;;;;4.28;2.70;;;2.20;99.90;;;;;;5044314;28;20449;-73
2024/01/16 11:33:00;;;;;;;6.05;3.00;;;2.30;99.90;;;;;;5047910;28;20484;-73
2024/01/16 11:35:33;;;;;;;7.57;2.90;;;2.40;99.90;;;;;;5047374;28;20433;-72
2024/01/16 11:38:05;;;;;;;6.22;2.85;;;2.40;99.90;;;;;;5042472;28;20884;-72
2024/01/16 11:40:36;;;;;;;5.20;2.70;;;2.50;99.90;;;;;;5041037;28;20433;-71
2024/01/16 11:43:36;;;;;;;7.47;2.95;;;2.50;99.90;;;;;;5049390;28;20433;-71
2024/01/16 11:46:05;;;;;;;3.75;2.80;;;2.50;99.90;;;;;;5044879;28;20433;-74
2024/01/16 11:48:32;;;;;;;7.43;2.63;;;2.60;99.90;;;;;;5048996;28;20428;-73
2024/01/16 11:50:59;;;;;;;5.43;3.40;;;2.70;99.90;;;;;;5042357;28;20433;-71
2024/01/16 11:53:32;;;;;;;6.85;3.22;;;2.80;99.90;;;;;;5047975;28;20981;-71
2024/01/16 11:56:26;;;;;;;6.50;3.10;;;2.90;98.10;;;;;;5042937;28;20424;-72
2024/01/16 11:59:06;;;;;;;5.25;2.80;;;2.80;99.10;;;;;;5044844;28;20515;-71
2024/01/16 12:01:36;;;;;;;7.75;3.30;;;2.80;99.90;;;;;;5041915;28;20436;-72
2024/01/16 12:04:03;;;;;;;5.20;2.40;;;2.90;99.00;;;;;;5040445;28;20437;-71
2024/01/16 12:06:30;;;;;;;5.38;2.97;;;2.80;97.80;;;;;;5049063;28;20483;-71
2024/01/16 12:09:11;;;;;;;4.78;3.28;;;2.70;98.10;;;;;;5050977;28;20824;-72
2024/01/16 12:11:38;;;;;;;7.45;3.80;;;2.70;98.80;;;;;;5046597;28;20424;-72
2024/01/16 12:14:05;;;;;;;6.50;3.53;;;2.60;99.10;;;;;;5041935;28;20433;-72
2024/01/16 12:16:32;;;;;;;6.55;3.00;;;3.10;98.20;;;;;;5041271;28;20436;-73
2024/01/16 12:19:07;;;;;;;5.87;3.00;;;4.20;95.10;;;;;;5046920;28;20433;-72
2024/01/16 12:21:35;;;;;;;4.80;2.85;;;5.50;79.90;;;;;;5044140;28;21005;-73
2024/01/16 12:24:03;;;;;;;6.40;3.00;;;6.90;76.80;;;;;;5048239;28;20665;-72
2024/01/16 12:26:31;;;;;;;6.47;3.00;;;7.50;65.30;;;;;;5045446;28;20440;-72
2024/01/16 12:28:58;;;;;;;7.60;3.00;;;7.80;63.10;;;;;;5044369;28;20486;-72
2024/01/16 12:31:25;;;;;;;5.60;3.10;;;8.00;59.40;;;;;;5048592;28;20433;-71
2024/01/16 12:33:52;;;;;;;4.80;3.33;;;7.90;57.80;;;;;;5045311;28;20431;-71
2024/01/16 12:36:20;;;;;;;5.78;3.25;;;7.40;59.60;;;;;;5038996;28;20435;-71
2024/01/16 12:38:55;;;;;;;8.13;4.00;;;7.10;59.50;;;;;;5044997;28;20421;-72
2024/01/16 12:41:23;;;;;;;6.70;3.10;;;6.90;61.20;;;;;;5041133;28;20729;-71
2024/01/16 12:43:50;;;;;;;4.30;3.40;;;6.80;60.80;;;;;;5041687;28;20785;-71
2024/01/16 12:46:19;;;;;;;5.77;3.10;;;6.50;60.10;;;;;;5041039;28;20429;-72
2024/01/16 12:48:47;;;;;;;7.03;3.63;;;6.30;61.10;;;;;;5039026;28;20807;-71
2024/01/16 12:51:20;;;;;;;5.45;3.50;;;6.10;61.90;;;;;;5040718;28;20433;-71
2024/01/16 12:53:49;;;;;;;6.25;3.30;;;6.20;63.50;;;;;;5048032;28;20415;-72
2024/01/16 12:56:19;;;;;;;6.43;3.80;;;6.40;63.30;;;;;;5041863;28;20417;-71